sensor_id;sensor_type;location;lat;lon;timestamp;pressure;altitude;pressure_sealevel;temperature;humidity
27888;BME280;15237;49.608;7.170;2022-08-03T00:00:24;978.26;;;28.12;35.52
27888;BME280;15237;49.608;7.170;2022-08-03T00:01:02;978.26;;;28.15;35.43
27888;BME280;15237;49.608;7.170;2022-08-03T00:01:42;978.27;;;28.14;35.48
27888;BME280;15237;49.608;7.170;2022-08-03T00:02:20;978.26;;;28.13;35.47
27888;BME280;15237;49.608;7.170;2022-08-03T00:02:58;978.25;;;28.11;35.48
27888;BME280;15237;49.608;7.170;2022-08-03T00:03:36;978.26;;;28.13;35.45
27888;BME280;15237;49.608;7.170;2022-08-03T00:04:14;978.26;;;28.13;35.47
27888;BME280;15237;49.608;7.170;2022-08-03T00:04:52;978.28;;;28.14;35.42
27888;BME280;15237;49.608;7.170;2022-08-03T00:05:30;978.27;;;28.14;35.47
27888;BME280;15237;49.608;7.170;2022-08-03T00:06:07;978.28;;;28.15;35.44
27888;BME280;15237;49.608;7.170;2022-08-03T00:06:47;978.28;;;28.17;35.39
27888;BME280;15237;49.608;7.170;2022-08-03T00:07:24;978.28;;;28.17;35.42
27888;BME280;15237;49.608;7.170;2022-08-03T00:08:07;978.28;;;28.15;35.45
27888;BME280;15237;49.608;7.170;2022-08-03T00:08:46;978.27;;;28.16;35.40
27888;BME280;15237;49.608;7.170;2022-08-03T00:09:24;978.25;;;28.16;35.39
27888;BME280;15237;49.608;7.170;2022-08-03T00:10:02;978.25;;;28.16;35.39
27888;BME280;15237;49.608;7.170;2022-08-03T00:10:44;978.26;;;28.16;35.43
27888;BME280;15237;49.608;7.170;2022-08-03T00:11:22;978.25;;;28.18;35.35
27888;BME280;15237;49.608;7.170;2022-08-03T00:12:03;978.25;;;28.16;35.43
27888;BME280;15237;49.608;7.170;2022-08-03T00:12:42;978.26;;;28.16;35.39
27888;BME280;15237;49.608;7.170;2022-08-03T00:13:20;978.25;;;28.16;35.39
27888;BME280;15237;49.608;7.170;2022-08-03T00:13:58;978.25;;;28.14;35.47
27888;BME280;15237;49.608;7.170;2022-08-03T00:14:38;978.24;;;28.15;35.43
27888;BME280;15237;49.608;7.170;2022-08-03T00:15:16;978.24;;;28.17;35.41
27888;BME280;15237;49.608;7.170;2022-08-03T00:15:54;978.26;;;28.18;35.36
27888;BME280;15237;49.608;7.170;2022-08-03T00:16:32;978.24;;;28.18;35.37
27888;BME280;15237;49.608;7.170;2022-08-03T00:17:11;978.26;;;28.17;35.39
27888;BME280;15237;49.608;7.170;2022-08-03T00:17:48;978.27;;;28.18;35.38
27888;BME280;15237;49.608;7.170;2022-08-03T00:18:25;978.28;;;28.17;35.39
27888;BME280;15237;49.608;7.170;2022-08-03T00:19:09;978.26;;;28.19;35.33
27888;BME280;15237;49.608;7.170;2022-08-03T00:19:46;978.27;;;28.17;35.37
27888;BME280;15237;49.608;7.170;2022-08-03T00:20:24;978.27;;;28.17;35.38
27888;BME280;15237;49.608;7.170;2022-08-03T00:21:05;978.27;;;28.18;35.34
27888;BME280;15237;49.608;7.170;2022-08-03T00:21:43;978.27;;;28.20;35.30
27888;BME280;15237;49.608;7.170;2022-08-03T00:22:20;978.24;;;28.20;35.32
27888;BME280;15237;49.608;7.170;2022-08-03T00:22:58;978.26;;;28.20;35.34
27888;BME280;15237;49.608;7.170;2022-08-03T00:23:36;978.25;;;28.19;35.34
27888;BME280;15237;49.608;7.170;2022-08-03T00:24:15;978.23;;;28.18;35.37
27888;BME280;15237;49.608;7.170;2022-08-03T00:24:53;978.23;;;28.18;35.34
27888;BME280;15237;49.608;7.170;2022-08-03T00:25:32;978.23;;;28.16;35.34
27888;BME280;15237;49.608;7.170;2022-08-03T00:26:14;978.23;;;28.17;35.35
27888;BME280;15237;49.608;7.170;2022-08-03T00:26:53;978.21;;;28.16;35.37
27888;BME280;15237;49.608;7.170;2022-08-03T00:27:36;978.21;;;28.14;35.39
27888;BME280;15237;49.608;7.170;2022-08-03T00:28:14;978.20;;;28.14;35.39
27888;BME280;15237;49.608;7.170;2022-08-03T00:28:53;978.19;;;28.17;35.36
27888;BME280;15237;49.608;7.170;2022-08-03T00:29:31;978.21;;;28.18;35.37
27888;BME280;15237;49.608;7.170;2022-08-03T00:30:09;978.19;;;28.18;35.32
27888;BME280;15237;49.608;7.170;2022-08-03T00:30:48;978.19;;;28.19;35.34
27888;BME280;15237;49.608;7.170;2022-08-03T00:31:26;978.18;;;28.19;35.30
27888;BME280;15237;49.608;7.170;2022-08-03T00:32:04;978.17;;;28.18;35.35
27888;BME280;15237;49.608;7.170;2022-08-03T00:32:46;978.16;;;28.17;35.36
27888;BME280;15237;49.608;7.170;2022-08-03T00:33:25;978.14;;;28.18;35.34
27888;BME280;15237;49.608;7.170;2022-08-03T00:34:08;978.16;;;28.18;35.32
27888;BME280;15237;49.608;7.170;2022-08-03T00:34:46;978.14;;;28.20;35.31
27888;BME280;15237;49.608;7.170;2022-08-03T00:35:24;978.14;;;28.18;35.33
27888;BME280;15237;49.608;7.170;2022-08-03T00:36:07;978.13;;;28.17;35.35
27888;BME280;15237;49.608;7.170;2022-08-03T00:36:50;978.13;;;28.16;35.37
27888;BME280;15237;49.608;7.170;2022-08-03T00:37:28;978.13;;;28.18;35.33
27888;BME280;15237;49.608;7.170;2022-08-03T00:38:10;978.15;;;28.19;35.30
27888;BME280;15237;49.608;7.170;2022-08-03T00:38:53;978.12;;;28.18;35.31
27888;BME280;15237;49.608;7.170;2022-08-03T00:39:32;978.12;;;28.18;35.30
27888;BME280;15237;49.608;7.170;2022-08-03T00:40:10;978.13;;;28.19;35.30
27888;BME280;15237;49.608;7.170;2022-08-03T00:40:58;978.13;;;28.18;35.30
27888;BME280;15237;49.608;7.170;2022-08-03T00:41:35;978.11;;;28.18;35.31
27888;BME280;15237;49.608;7.170;2022-08-03T00:42:13;978.13;;;28.17;35.32
27888;BME280;15237;49.608;7.170;2022-08-03T00:42:57;978.11;;;28.16;35.36
27888;BME280;15237;49.608;7.170;2022-08-03T00:43:36;978.12;;;28.17;35.33
27888;BME280;15237;49.608;7.170;2022-08-03T00:44:14;978.12;;;28.17;35.33
27888;BME280;15237;49.608;7.170;2022-08-03T00:44:53;978.11;;;28.15;35.37
27888;BME280;15237;49.608;7.170;2022-08-03T00:45:37;978.10;;;28.13;35.38
27888;BME280;15237;49.608;7.170;2022-08-03T00:46:21;978.09;;;28.12;35.40
27888;BME280;15237;49.608;7.170;2022-08-03T00:47:00;978.09;;;28.11;35.40
27888;BME280;15237;49.608;7.170;2022-08-03T00:47:39;978.08;;;28.09;35.44
27888;BME280;15237;49.608;7.170;2022-08-03T00:48:17;978.09;;;28.09;35.45
27888;BME280;15237;49.608;7.170;2022-08-03T00:48:56;978.08;;;28.10;35.42
27888;BME280;15237;49.608;7.170;2022-08-03T00:49:38;978.08;;;28.12;35.40
27888;BME280;15237;49.608;7.170;2022-08-03T00:50:21;978.10;;;28.12;35.41
27888;BME280;15237;49.608;7.170;2022-08-03T00:51:00;978.07;;;28.12;35.40
27888;BME280;15237;49.608;7.170;2022-08-03T00:51:38;978.09;;;28.14;35.36
27888;BME280;15237;49.608;7.170;2022-08-03T00:52:15;978.08;;;28.13;35.41
27888;BME280;15237;49.608;7.170;2022-08-03T00:52:56;978.08;;;28.14;35.34
27888;BME280;15237;49.608;7.170;2022-08-03T00:53:36;978.06;;;28.14;35.38
27888;BME280;15237;49.608;7.170;2022-08-03T00:54:16;978.08;;;28.14;35.37
27888;BME280;15237;49.608;7.170;2022-08-03T00:54:56;978.05;;;28.13;35.35
27888;BME280;15237;49.608;7.170;2022-08-03T00:55:38;978.07;;;28.14;35.33
27888;BME280;15237;49.608;7.170;2022-08-03T00:56:20;978.05;;;28.14;35.36
27888;BME280;15237;49.608;7.170;2022-08-03T00:57:00;978.05;;;28.12;35.38
27888;BME280;15237;49.608;7.170;2022-08-03T00:57:38;978.05;;;28.15;35.33
27888;BME280;15237;49.608;7.170;2022-08-03T00:58:16;978.04;;;28.15;35.33
27888;BME280;15237;49.608;7.170;2022-08-03T00:58:54;978.03;;;28.16;35.34
27888;BME280;15237;49.608;7.170;2022-08-03T00:59:34;978.03;;;28.15;35.35
27888;BME280;15237;49.608;7.170;2022-08-03T01:00:13;978.02;;;28.14;35.36
27888;BME280;15237;49.608;7.170;2022-08-03T01:00:53;978.04;;;28.15;35.33
27888;BME280;15237;49.608;7.170;2022-08-03T01:01:31;978.05;;;28.15;35.33
27888;BME280;15237;49.608;7.170;2022-08-03T01:02:09;978.05;;;28.14;35.34
27888;BME280;15237;49.608;7.170;2022-08-03T01:02:47;978.06;;;28.14;35.35
27888;BME280;15237;49.608;7.170;2022-08-03T01:03:29;978.05;;;28.12;35.40
27888;BME280;15237;49.608;7.170;2022-08-03T01:04:07;978.06;;;28.11;35.40
27888;BME280;15237;49.608;7.170;2022-08-03T01:04:50;978.06;;;28.11;35.37
27888;BME280;15237;49.608;7.170;2022-08-03T01:05:32;978.07;;;28.13;35.36
27888;BME280;15237;49.608;7.170;2022-08-03T01:07:05;978.08;;;28.16;35.33
27888;BME280;15237;49.608;7.170;2022-08-03T01:09:10;978.05;;;28.15;35.33
27888;BME280;15237;49.608;7.170;2022-08-03T01:12:07;978.05;;;28.18;35.27
27888;BME280;15237;49.608;7.170;2022-08-03T01:13:33;978.05;;;28.18;35.23
27888;BME280;15237;49.608;7.170;2022-08-03T01:17:04;978.04;;;28.21;35.20
27888;BME280;15237;49.608;7.170;2022-08-03T01:17:48;978.03;;;28.24;35.15
27888;BME280;15237;49.608;7.170;2022-08-03T01:18:31;978.03;;;28.22;35.16
27888;BME280;15237;49.608;7.170;2022-08-03T01:19:59;977.99;;;28.23;35.16
27888;BME280;15237;49.608;7.170;2022-08-03T01:20:42;978.01;;;28.24;35.13
27888;BME280;15237;49.608;7.170;2022-08-03T01:25:39;978.01;;;28.22;35.15
27888;BME280;15237;49.608;7.170;2022-08-03T01:27:06;977.99;;;28.18;35.23
27888;BME280;15237;49.608;7.170;2022-08-03T01:28:38;978.00;;;28.19;35.17
27888;BME280;15237;49.608;7.170;2022-08-03T01:30:02;977.98;;;28.18;35.19
27888;BME280;15237;49.608;7.170;2022-08-03T01:30:46;977.95;;;28.20;35.19
27888;BME280;15237;49.608;7.170;2022-08-03T01:32:14;977.95;;;28.21;35.14
27888;BME280;15237;49.608;7.170;2022-08-03T01:32:54;977.96;;;28.20;35.19
27888;BME280;15237;49.608;7.170;2022-08-03T01:33:38;977.96;;;28.21;35.16
27888;BME280;15237;49.608;7.170;2022-08-03T01:34:18;977.98;;;28.21;35.15
27888;BME280;15237;49.608;7.170;2022-08-03T01:35:01;977.96;;;28.20;35.17
27888;BME280;15237;49.608;7.170;2022-08-03T01:35:43;977.94;;;28.20;35.15
27888;BME280;15237;49.608;7.170;2022-08-03T01:36:27;977.97;;;28.19;35.17
27888;BME280;15237;49.608;7.170;2022-08-03T01:37:06;977.95;;;28.20;35.17
27888;BME280;15237;49.608;7.170;2022-08-03T01:37:53;977.92;;;28.19;35.19
27888;BME280;15237;49.608;7.170;2022-08-03T01:38:35;977.93;;;28.18;35.22
27888;BME280;15237;49.608;7.170;2022-08-03T01:39:17;977.94;;;28.17;35.20
27888;BME280;15237;49.608;7.170;2022-08-03T01:39:56;977.91;;;28.18;35.20
27888;BME280;15237;49.608;7.170;2022-08-03T01:40:39;977.91;;;28.17;35.20
27888;BME280;15237;49.608;7.170;2022-08-03T01:41:24;977.92;;;28.18;35.20
27888;BME280;15237;49.608;7.170;2022-08-03T01:42:05;977.90;;;28.19;35.16
27888;BME280;15237;49.608;7.170;2022-08-03T01:42:44;977.90;;;28.19;35.16
27888;BME280;15237;49.608;7.170;2022-08-03T01:43:40;977.90;;;28.22;35.13
27888;BME280;15237;49.608;7.170;2022-08-03T01:44:19;977.90;;;28.21;35.11
27888;BME280;15237;49.608;7.170;2022-08-03T01:44:59;977.88;;;28.22;35.11
27888;BME280;15237;49.608;7.170;2022-08-03T01:45:38;977.90;;;28.23;35.09
27888;BME280;15237;49.608;7.170;2022-08-03T01:46:17;977.89;;;28.20;35.17
27888;BME280;15237;49.608;7.170;2022-08-03T01:47:00;977.89;;;28.18;35.18
27888;BME280;15237;49.608;7.170;2022-08-03T01:47:40;977.89;;;28.18;35.17
27888;BME280;15237;49.608;7.170;2022-08-03T01:48:19;977.90;;;28.18;35.19
27888;BME280;15237;49.608;7.170;2022-08-03T01:48:57;977.90;;;28.17;35.20
27888;BME280;15237;49.608;7.170;2022-08-03T01:49:37;977.87;;;28.17;35.18
27888;BME280;15237;49.608;7.170;2022-08-03T01:51:07;977.89;;;28.14;35.24
27888;BME280;15237;49.608;7.170;2022-08-03T01:51:48;977.87;;;28.13;35.24
27888;BME280;15237;49.608;7.170;2022-08-03T01:52:27;977.86;;;28.15;35.21
27888;BME280;15237;49.608;7.170;2022-08-03T01:53:05;977.86;;;28.16;35.21
27888;BME280;15237;49.608;7.170;2022-08-03T01:53:43;977.86;;;28.16;35.24
27888;BME280;15237;49.608;7.170;2022-08-03T01:54:23;977.83;;;28.15;35.24
27888;BME280;15237;49.608;7.170;2022-08-03T01:55:02;977.83;;;28.15;35.22
27888;BME280;15237;49.608;7.170;2022-08-03T01:55:47;977.83;;;28.16;35.22
27888;BME280;15237;49.608;7.170;2022-08-03T01:56:26;977.81;;;28.16;35.19
27888;BME280;15237;49.608;7.170;2022-08-03T01:57:07;977.79;;;28.15;35.19
27888;BME280;15237;49.608;7.170;2022-08-03T01:57:51;977.78;;;28.15;35.20
27888;BME280;15237;49.608;7.170;2022-08-03T01:58:30;977.79;;;28.17;35.19
27888;BME280;15237;49.608;7.170;2022-08-03T01:59:09;977.78;;;28.17;35.18
27888;BME280;15237;49.608;7.170;2022-08-03T01:59:48;977.78;;;28.16;35.18
27888;BME280;15237;49.608;7.170;2022-08-03T02:00:27;977.78;;;28.16;35.16
27888;BME280;15237;49.608;7.170;2022-08-03T02:01:06;977.77;;;28.15;35.18
27888;BME280;15237;49.608;7.170;2022-08-03T02:01:47;977.77;;;28.17;35.14
27888;BME280;15237;49.608;7.170;2022-08-03T02:02:26;977.79;;;28.18;35.16
27888;BME280;15237;49.608;7.170;2022-08-03T02:03:04;977.80;;;28.17;35.16
27888;BME280;15237;49.608;7.170;2022-08-03T02:03:58;977.80;;;28.18;35.14
27888;BME280;15237;49.608;7.170;2022-08-03T02:04:36;977.80;;;28.19;35.14
27888;BME280;15237;49.608;7.170;2022-08-03T02:05:19;977.81;;;28.16;35.18
27888;BME280;15237;49.608;7.170;2022-08-03T02:05:58;977.79;;;28.15;35.20
27888;BME280;15237;49.608;7.170;2022-08-03T02:06:37;977.81;;;28.16;35.18
27888;BME280;15237;49.608;7.170;2022-08-03T02:07:15;977.79;;;28.15;35.18
27888;BME280;15237;49.608;7.170;2022-08-03T02:07:54;977.79;;;28.16;35.16
27888;BME280;15237;49.608;7.170;2022-08-03T02:08:33;977.78;;;28.16;35.18
27888;BME280;15237;49.608;7.170;2022-08-03T02:09:12;977.79;;;28.16;35.16
27888;BME280;15237;49.608;7.170;2022-08-03T02:09:52;977.78;;;28.15;35.19
27888;BME280;15237;49.608;7.170;2022-08-03T02:10:37;977.78;;;28.15;35.19
27888;BME280;15237;49.608;7.170;2022-08-03T02:11:17;977.78;;;28.14;35.19
27888;BME280;15237;49.608;7.170;2022-08-03T02:11:59;977.81;;;28.15;35.16
27888;BME280;15237;49.608;7.170;2022-08-03T02:12:39;977.79;;;28.13;35.20
27888;BME280;15237;49.608;7.170;2022-08-03T02:13:19;977.78;;;28.10;35.26
27888;BME280;15237;49.608;7.170;2022-08-03T02:14:03;977.76;;;28.05;35.36
27888;BME280;15237;49.608;7.170;2022-08-03T02:14:42;977.76;;;28.06;35.30
27888;BME280;15237;49.608;7.170;2022-08-03T02:15:20;977.77;;;28.08;35.26
27888;BME280;15237;49.608;7.170;2022-08-03T02:16:04;977.76;;;28.07;35.31
27888;BME280;15237;49.608;7.170;2022-08-03T02:16:42;977.75;;;28.06;35.33
27888;BME280;15237;49.608;7.170;2022-08-03T02:17:37;977.75;;;28.05;35.32
27888;BME280;15237;49.608;7.170;2022-08-03T02:18:19;977.75;;;28.07;35.29
27888;BME280;15237;49.608;7.170;2022-08-03T02:18:57;977.76;;;28.08;35.28
27888;BME280;15237;49.608;7.170;2022-08-03T02:19:43;977.73;;;28.07;35.30
27888;BME280;15237;49.608;7.170;2022-08-03T02:20:22;977.74;;;28.06;35.34
27888;BME280;15237;49.608;7.170;2022-08-03T02:21:00;977.74;;;28.07;35.26
27888;BME280;15237;49.608;7.170;2022-08-03T02:21:39;977.75;;;28.08;35.29
27888;BME280;15237;49.608;7.170;2022-08-03T02:22:18;977.75;;;28.10;35.24
27888;BME280;15237;49.608;7.170;2022-08-03T02:23:00;977.72;;;28.08;35.28
27888;BME280;15237;49.608;7.170;2022-08-03T02:23:40;977.75;;;28.06;35.28
27888;BME280;15237;49.608;7.170;2022-08-03T02:24:22;977.75;;;28.05;35.30
27888;BME280;15237;49.608;7.170;2022-08-03T02:25:00;977.74;;;28.06;35.30
27888;BME280;15237;49.608;7.170;2022-08-03T02:25:44;977.76;;;28.10;35.21
27888;BME280;15237;49.608;7.170;2022-08-03T02:26:22;977.76;;;28.11;35.23
27888;BME280;15237;49.608;7.170;2022-08-03T02:27:00;977.77;;;28.11;35.23
27888;BME280;15237;49.608;7.170;2022-08-03T02:27:48;977.77;;;28.09;35.26
27888;BME280;15237;49.608;7.170;2022-08-03T02:28:31;977.76;;;28.07;35.26
27888;BME280;15237;49.608;7.170;2022-08-03T02:29:10;977.76;;;28.07;35.29
27888;BME280;15237;49.608;7.170;2022-08-03T02:29:52;977.74;;;28.07;35.28
27888;BME280;15237;49.608;7.170;2022-08-03T02:30:32;977.71;;;28.06;35.31
27888;BME280;15237;49.608;7.170;2022-08-03T02:31:23;977.71;;;28.08;35.29
27888;BME280;15237;49.608;7.170;2022-08-03T02:31:57;977.72;;;28.06;35.29
27888;BME280;15237;49.608;7.170;2022-08-03T02:32:41;977.71;;;28.08;35.27
27888;BME280;15237;49.608;7.170;2022-08-03T02:33:22;977.71;;;28.09;35.25
27888;BME280;15237;49.608;7.170;2022-08-03T02:34:05;977.71;;;28.08;35.27
27888;BME280;15237;49.608;7.170;2022-08-03T02:34:45;977.72;;;28.09;35.21
27888;BME280;15237;49.608;7.170;2022-08-03T02:35:25;977.74;;;28.11;35.19
27888;BME280;15237;49.608;7.170;2022-08-03T02:36:05;977.73;;;28.10;35.21
27888;BME280;15237;49.608;7.170;2022-08-03T02:36:45;977.72;;;28.08;35.25
27888;BME280;15237;49.608;7.170;2022-08-03T02:37:28;977.73;;;28.09;35.24
27888;BME280;15237;49.608;7.170;2022-08-03T02:38:12;977.72;;;28.07;35.26
27888;BME280;15237;49.608;7.170;2022-08-03T02:38:52;977.72;;;28.06;35.27
27888;BME280;15237;49.608;7.170;2022-08-03T02:39:33;977.71;;;28.05;35.30
27888;BME280;15237;49.608;7.170;2022-08-03T02:40:12;977.72;;;28.07;35.27
27888;BME280;15237;49.608;7.170;2022-08-03T02:40:50;977.72;;;28.08;35.24
27888;BME280;15237;49.608;7.170;2022-08-03T02:41:30;977.73;;;28.07;35.28
27888;BME280;15237;49.608;7.170;2022-08-03T02:42:10;977.71;;;28.08;35.25
27888;BME280;15237;49.608;7.170;2022-08-03T02:42:52;977.68;;;28.09;35.24
27888;BME280;15237;49.608;7.170;2022-08-03T02:43:34;977.67;;;28.06;35.25
27888;BME280;15237;49.608;7.170;2022-08-03T02:44:12;977.68;;;28.05;35.28
27888;BME280;15237;49.608;7.170;2022-08-03T02:44:51;977.68;;;28.02;35.32
27888;BME280;15237;49.608;7.170;2022-08-03T02:45:30;977.67;;;28.02;35.34
27888;BME280;15237;49.608;7.170;2022-08-03T02:46:12;977.64;;;28.02;35.32
27888;BME280;15237;49.608;7.170;2022-08-03T02:46:52;977.64;;;28.05;35.28
27888;BME280;15237;49.608;7.170;2022-08-03T02:47:35;977.64;;;28.05;35.27
27888;BME280;15237;49.608;7.170;2022-08-03T02:48:17;977.61;;;28.04;35.30
27888;BME280;15237;49.608;7.170;2022-08-03T02:48:56;977.63;;;28.02;35.29
27888;BME280;15237;49.608;7.170;2022-08-03T02:49:37;977.63;;;28.02;35.33
27888;BME280;15237;49.608;7.170;2022-08-03T02:50:17;977.64;;;28.03;35.32
27888;BME280;15237;49.608;7.170;2022-08-03T02:50:59;977.63;;;28.03;35.32
27888;BME280;15237;49.608;7.170;2022-08-03T02:51:41;977.64;;;28.03;35.30
27888;BME280;15237;49.608;7.170;2022-08-03T02:52:20;977.65;;;28.04;35.29
27888;BME280;15237;49.608;7.170;2022-08-03T02:52:59;977.65;;;28.03;35.30
27888;BME280;15237;49.608;7.170;2022-08-03T02:53:39;977.65;;;28.06;35.27
27888;BME280;15237;49.608;7.170;2022-08-03T02:54:17;977.65;;;28.09;35.21
27888;BME280;15237;49.608;7.170;2022-08-03T02:54:58;977.66;;;28.13;35.15
27888;BME280;15237;49.608;7.170;2022-08-03T02:55:37;977.64;;;28.17;35.09
27888;BME280;15237;49.608;7.170;2022-08-03T02:56:16;977.66;;;28.15;35.12
27888;BME280;15237;49.608;7.170;2022-08-03T02:56:54;977.66;;;28.12;35.15
27888;BME280;15237;49.608;7.170;2022-08-03T02:57:33;977.64;;;28.08;35.22
27888;BME280;15237;49.608;7.170;2022-08-03T02:58:14;977.64;;;28.04;35.29
27888;BME280;15237;49.608;7.170;2022-08-03T02:58:54;977.61;;;28.03;35.29
27888;BME280;15237;49.608;7.170;2022-08-03T02:59:33;977.62;;;28.03;35.27
27888;BME280;15237;49.608;7.170;2022-08-03T03:00:11;977.63;;;28.03;35.30
27888;BME280;15237;49.608;7.170;2022-08-03T03:00:50;977.63;;;28.01;35.32
27888;BME280;15237;49.608;7.170;2022-08-03T03:01:28;977.62;;;28.02;35.30
27888;BME280;15237;49.608;7.170;2022-08-03T03:02:07;977.62;;;28.03;35.29
27888;BME280;15237;49.608;7.170;2022-08-03T03:02:46;977.63;;;28.01;35.33
27888;BME280;15237;49.608;7.170;2022-08-03T03:03:24;977.62;;;27.98;35.39
27888;BME280;15237;49.608;7.170;2022-08-03T03:04:03;977.62;;;28.00;35.36
27888;BME280;15237;49.608;7.170;2022-08-03T03:04:57;977.64;;;28.02;35.29
27888;BME280;15237;49.608;7.170;2022-08-03T03:05:35;977.62;;;28.06;35.23
27888;BME280;15237;49.608;7.170;2022-08-03T03:06:14;977.63;;;28.12;35.12
27888;BME280;15237;49.608;7.170;2022-08-03T03:06:54;977.64;;;28.13;35.10
27888;BME280;15237;49.608;7.170;2022-08-03T03:07:32;977.63;;;28.12;35.11
27888;BME280;15237;49.608;7.170;2022-08-03T03:08:13;977.58;;;28.11;35.16
27888;BME280;15237;49.608;7.170;2022-08-03T03:08:53;977.62;;;28.09;35.18
27888;BME280;15237;49.608;7.170;2022-08-03T03:09:32;977.62;;;28.08;35.18
27888;BME280;15237;49.608;7.170;2022-08-03T03:10:11;977.60;;;28.07;35.20
27888;BME280;15237;49.608;7.170;2022-08-03T03:10:49;977.62;;;28.06;35.19
27888;BME280;15237;49.608;7.170;2022-08-03T03:11:29;977.63;;;28.03;35.28
27888;BME280;15237;49.608;7.170;2022-08-03T03:12:10;977.63;;;27.98;35.34
27888;BME280;15237;49.608;7.170;2022-08-03T03:12:49;977.64;;;27.99;35.33
27888;BME280;15237;49.608;7.170;2022-08-03T03:13:31;977.63;;;27.98;35.34
27888;BME280;15237;49.608;7.170;2022-08-03T03:14:09;977.64;;;27.97;35.38
27888;BME280;15237;49.608;7.170;2022-08-03T03:14:48;977.64;;;27.96;35.39
27888;BME280;15237;49.608;7.170;2022-08-03T03:15:26;977.64;;;27.98;35.33
27888;BME280;15237;49.608;7.170;2022-08-03T03:16:06;977.63;;;27.97;35.36
27888;BME280;15237;49.608;7.170;2022-08-03T03:16:45;977.64;;;27.96;35.39
27888;BME280;15237;49.608;7.170;2022-08-03T03:17:23;977.66;;;27.97;35.36
27888;BME280;15237;49.608;7.170;2022-08-03T03:18:05;977.65;;;27.98;35.36
27888;BME280;15237;49.608;7.170;2022-08-03T03:18:47;977.65;;;27.96;35.38
27888;BME280;15237;49.608;7.170;2022-08-03T03:19:26;977.66;;;27.95;35.37
27888;BME280;15237;49.608;7.170;2022-08-03T03:20:04;977.64;;;27.95;35.40
27888;BME280;15237;49.608;7.170;2022-08-03T03:20:50;977.63;;;27.96;35.36
27888;BME280;15237;49.608;7.170;2022-08-03T03:21:29;977.63;;;27.97;35.35
27888;BME280;15237;49.608;7.170;2022-08-03T03:22:07;977.65;;;27.98;35.33
27888;BME280;15237;49.608;7.170;2022-08-03T03:22:47;977.64;;;27.97;35.37
27888;BME280;15237;49.608;7.170;2022-08-03T03:23:26;977.62;;;27.98;35.34
27888;BME280;15237;49.608;7.170;2022-08-03T03:24:05;977.62;;;28.00;35.30
27888;BME280;15237;49.608;7.170;2022-08-03T03:24:46;977.63;;;28.01;35.27
27888;BME280;15237;49.608;7.170;2022-08-03T03:25:29;977.61;;;28.01;35.28
27888;BME280;15237;49.608;7.170;2022-08-03T03:26:11;977.61;;;28.01;35.27
27888;BME280;15237;49.608;7.170;2022-08-03T03:26:53;977.60;;;28.01;35.28
27888;BME280;15237;49.608;7.170;2022-08-03T03:27:31;977.59;;;28.02;35.25
27888;BME280;15237;49.608;7.170;2022-08-03T03:28:10;977.60;;;28.01;35.26
27888;BME280;15237;49.608;7.170;2022-08-03T03:28:48;977.58;;;28.00;35.30
27888;BME280;15237;49.608;7.170;2022-08-03T03:29:26;977.58;;;28.00;35.29
27888;BME280;15237;49.608;7.170;2022-08-03T03:30:05;977.59;;;28.00;35.31
27888;BME280;15237;49.608;7.170;2022-08-03T03:30:46;977.58;;;27.99;35.32
27888;BME280;15237;49.608;7.170;2022-08-03T03:31:30;977.58;;;28.00;35.28
27888;BME280;15237;49.608;7.170;2022-08-03T03:32:09;977.56;;;27.99;35.29
27888;BME280;15237;49.608;7.170;2022-08-03T03:32:47;977.56;;;27.99;35.31
27888;BME280;15237;49.608;7.170;2022-08-03T03:33:25;977.56;;;27.99;35.27
27888;BME280;15237;49.608;7.170;2022-08-03T03:34:04;977.57;;;27.99;35.29
27888;BME280;15237;49.608;7.170;2022-08-03T03:34:41;977.56;;;27.98;35.32
27888;BME280;15237;49.608;7.170;2022-08-03T03:35:20;977.57;;;27.98;35.28
27888;BME280;15237;49.608;7.170;2022-08-03T03:36:00;977.58;;;27.99;35.28
27888;BME280;15237;49.608;7.170;2022-08-03T03:36:39;977.59;;;28.00;35.27
27888;BME280;15237;49.608;7.170;2022-08-03T03:37:16;977.59;;;28.00;35.28
27888;BME280;15237;49.608;7.170;2022-08-03T03:37:58;977.59;;;27.99;35.29
27888;BME280;15237;49.608;7.170;2022-08-03T03:38:40;977.61;;;27.99;35.27
27888;BME280;15237;49.608;7.170;2022-08-03T03:39:18;977.60;;;28.00;35.25
27888;BME280;15237;49.608;7.170;2022-08-03T03:40:00;977.59;;;28.00;35.29
27888;BME280;15237;49.608;7.170;2022-08-03T03:40:38;977.60;;;27.98;35.29
27888;BME280;15237;49.608;7.170;2022-08-03T03:41:16;977.60;;;27.98;35.28
27888;BME280;15237;49.608;7.170;2022-08-03T03:41:54;977.58;;;27.99;35.28
27888;BME280;15237;49.608;7.170;2022-08-03T03:42:33;977.61;;;27.99;35.30
27888;BME280;15237;49.608;7.170;2022-08-03T03:43:11;977.61;;;27.97;35.31
27888;BME280;15237;49.608;7.170;2022-08-03T03:43:49;977.59;;;27.94;35.35
27888;BME280;15237;49.608;7.170;2022-08-03T03:44:29;977.59;;;27.95;35.31
27888;BME280;15237;49.608;7.170;2022-08-03T03:45:10;977.59;;;27.96;35.31
27888;BME280;15237;49.608;7.170;2022-08-03T03:45:54;977.62;;;27.98;35.28
27888;BME280;15237;49.608;7.170;2022-08-03T03:46:33;977.60;;;27.99;35.27
27888;BME280;15237;49.608;7.170;2022-08-03T03:47:11;977.59;;;28.01;35.25
27888;BME280;15237;49.608;7.170;2022-08-03T03:47:54;977.61;;;28.00;35.23
27888;BME280;15237;49.608;7.170;2022-08-03T03:48:33;977.59;;;28.00;35.23
27888;BME280;15237;49.608;7.170;2022-08-03T03:49:10;977.60;;;27.99;35.26
27888;BME280;15237;49.608;7.170;2022-08-03T03:49:50;977.59;;;27.99;35.24
27888;BME280;15237;49.608;7.170;2022-08-03T03:50:28;977.61;;;28.00;35.25
27888;BME280;15237;49.608;7.170;2022-08-03T03:51:07;977.59;;;27.98;35.29
27888;BME280;15237;49.608;7.170;2022-08-03T03:51:46;977.62;;;27.99;35.26
27888;BME280;15237;49.608;7.170;2022-08-03T03:52:26;977.63;;;28.01;35.22
27888;BME280;15237;49.608;7.170;2022-08-03T03:53:04;977.61;;;28.00;35.20
27888;BME280;15237;49.608;7.170;2022-08-03T03:55:15;977.59;;;28.00;35.24
27888;BME280;15237;49.608;7.170;2022-08-03T03:55:58;977.58;;;27.97;35.26
27888;BME280;15237;49.608;7.170;2022-08-03T03:56:40;977.59;;;27.98;35.24
27888;BME280;15237;49.608;7.170;2022-08-03T03:57:22;977.56;;;27.96;35.29